sensor_id;sensor_type;location;lat;lon;timestamp;pressure;altitude;pressure_sealevel;temperature;humidity
11184;BME280;5648;43.628;22.684;2022-09-29T00:01:50;94299.91;;;17.29;100.00
11184;BME280;5648;43.628;22.684;2022-09-29T00:04:16;94289.47;;;17.28;100.00
11184;BME280;5648;43.628;22.684;2022-09-29T00:06:41;94302.06;;;17.22;98.10
11184;BME280;5648;43.628;22.684;2022-09-29T00:09:06;94288.69;;;17.27;97.97
11184;BME280;5648;43.628;22.684;2022-09-29T00:11:32;94291.63;;;17.26;98.92
11184;BME280;5648;43.628;22.684;2022-09-29T00:13:58;94280.41;;;17.34;95.49
11184;BME280;5648;43.628;22.684;2022-09-29T00:16:23;94284.94;;;17.38;96.62
11184;BME280;5648;43.628;22.684;2022-09-29T00:18:48;94279.06;;;17.41;97.84
11184;BME280;5648;43.628;22.684;2022-09-29T00:21:16;94267.84;;;17.29;98.57
11184;BME280;5648;43.628;22.684;2022-09-29T00:23:44;94275.06;;;17.29;96.46
11184;BME280;5648;43.628;22.684;2022-09-29T00:26:21;94268.66;;;17.25;98.60
11184;BME280;5648;43.628;22.684;2022-09-29T00:28:52;94260.94;;;17.18;100.00
11184;BME280;5648;43.628;22.684;2022-09-29T00:31:18;94273.47;;;17.23;100.00
11184;BME280;5648;43.628;22.684;2022-09-29T00:33:44;94261.72;;;17.13;99.83
11184;BME280;5648;43.628;22.684;2022-09-29T00:36:13;94258.25;;;16.98;100.00
11184;BME280;5648;43.628;22.684;2022-09-29T00:38:40;94258.81;;;16.95;100.00
11184;BME280;5648;43.628;22.684;2022-09-29T00:41:06;94251.84;;;16.88;100.00
11184;BME280;5648;43.628;22.684;2022-09-29T00:46:55;94258.81;;;16.79;97.40
11184;BME280;5648;43.628;22.684;2022-09-29T00:49:30;94256.38;;;16.73;94.37
11184;BME280;5648;43.628;22.684;2022-09-29T00:54:34;94240.38;;;16.83;90.48
11184;BME280;5648;43.628;22.684;2022-09-29T00:57:03;94252.41;;;16.90;95.43
11184;BME280;5648;43.628;22.684;2022-09-29T00:59:47;94248.94;;;17.05;91.02
11184;BME280;5648;43.628;22.684;2022-09-29T01:02:14;94250.25;;;17.03;90.68
11184;BME280;5648;43.628;22.684;2022-09-29T01:04:41;94243.84;;;16.99;90.04
11184;BME280;5648;43.628;22.684;2022-09-29T01:07:08;94239.56;;;17.23;84.66
11184;BME280;5648;43.628;22.684;2022-09-29T01:09:36;94243.03;;;17.08;92.67
11184;BME280;5648;43.628;22.684;2022-09-29T01:12:03;94256.63;;;17.17;91.16
11184;BME280;5648;43.628;22.684;2022-09-29T01:14:31;94244.34;;;17.26;92.60
11184;BME280;5648;43.628;22.684;2022-09-29T01:16:58;94251.28;;;17.17;92.98
11184;BME280;5648;43.628;22.684;2022-09-29T01:31:08;94256.94;;;17.05;85.70
11184;BME280;5648;43.628;22.684;2022-09-29T01:44:52;94250.41;;;17.72;73.20
11184;BME280;5648;43.628;22.684;2022-09-29T01:47:22;94246.06;;;17.92;71.30
11184;BME280;5648;43.628;22.684;2022-09-29T01:49:55;94243.09;;;17.98;69.90
11184;BME280;5648;43.628;22.684;2022-09-29T01:52:24;94232.88;;;18.10;69.85
11184;BME280;5648;43.628;22.684;2022-09-29T01:55:01;94245.22;;;18.06;70.04
11184;BME280;5648;43.628;22.684;2022-09-29T02:00:07;94240.94;;;18.00;70.29
11184;BME280;5648;43.628;22.684;2022-09-29T02:02:45;94242.22;;;18.13;67.95
11184;BME280;5648;43.628;22.684;2022-09-29T02:05:16;94251.28;;;18.22;66.57
11184;BME280;5648;43.628;22.684;2022-09-29T02:07:44;94235.72;;;18.29;66.19
11184;BME280;5648;43.628;22.684;2022-09-29T02:10:21;94232.06;;;18.10;69.83
11184;BME280;5648;43.628;22.684;2022-09-29T02:12:49;94237.75;;;18.03;69.82
11184;BME280;5648;43.628;22.684;2022-09-29T02:15:24;94246.28;;;18.05;68.93
11184;BME280;5648;43.628;22.684;2022-09-29T02:17:51;94236.94;;;18.03;67.95
11184;BME280;5648;43.628;22.684;2022-09-29T02:20:19;94245.72;;;18.08;68.84
11184;BME280;5648;43.628;22.684;2022-09-29T02:22:45;94235.34;;;17.97;74.01
11184;BME280;5648;43.628;22.684;2022-09-29T02:25:12;94230.56;;;17.94;72.37
11184;BME280;5648;43.628;22.684;2022-09-29T02:27:39;94223.13;;;17.80;71.83
11184;BME280;5648;43.628;22.684;2022-09-29T02:30:05;94226.06;;;17.79;72.92
11184;BME280;5648;43.628;22.684;2022-09-29T02:32:33;94231.66;;;17.83;72.89
11184;BME280;5648;43.628;22.684;2022-09-29T02:34:59;94236.50;;;17.75;73.46
11184;BME280;5648;43.628;22.684;2022-09-29T02:58:22;94251.53;;;17.51;86.28
11184;BME280;5648;43.628;22.684;2022-09-29T03:00:52;94246.41;;;17.70;79.30
11184;BME280;5648;43.628;22.684;2022-09-29T03:03:17;94249.88;;;17.70;80.01
11184;BME280;5648;43.628;22.684;2022-09-29T03:05:43;94259.78;;;17.75;81.54
11184;BME280;5648;43.628;22.684;2022-09-29T03:08:08;94243.72;;;17.65;83.61
11184;BME280;5648;43.628;22.684;2022-09-29T03:10:34;94238.47;;;17.14;91.44
11184;BME280;5648;43.628;22.684;2022-09-29T03:12:59;94255.03;;;17.16;85.37
11184;BME280;5648;43.628;22.684;2022-09-29T03:15:25;94244.34;;;17.36;81.45
11184;BME280;5648;43.628;22.684;2022-09-29T03:17:54;94240.34;;;17.34;88.06
11184;BME280;5648;43.628;22.684;2022-09-29T03:20:20;94246.97;;;17.51;83.64
11184;BME280;5648;43.628;22.684;2022-09-29T03:22:46;94249.63;;;17.57;76.83
11184;BME280;5648;43.628;22.684;2022-09-29T03:25:12;94258.16;;;17.59;80.29
11184;BME280;5648;43.628;22.684;2022-09-29T03:27:38;94240.50;;;17.78;76.27
11184;BME280;5648;43.628;22.684;2022-09-29T03:30:04;94238.13;;;17.76;74.14
11184;BME280;5648;43.628;22.684;2022-09-29T03:32:30;94245.88;;;17.58;79.67
11184;BME280;5648;43.628;22.684;2022-09-29T03:34:55;94253.63;;;17.59;81.38
11184;BME280;5648;43.628;22.684;2022-09-29T03:37:21;94255.50;;;17.69;79.14
11184;BME280;5648;43.628;22.684;2022-09-29T03:39:46;94243.16;;;17.83;78.08
11184;BME280;5648;43.628;22.684;2022-09-29T03:42:12;94245.06;;;17.77;79.06
11184;BME280;5648;43.628;22.684;2022-09-29T03:44:37;94249.28;;;17.94;76.81
11184;BME280;5648;43.628;22.684;2022-09-29T03:47:03;94245.56;;;17.90;78.29
11184;BME280;5648;43.628;22.684;2022-09-29T03:49:28;94247.91;;;17.96;77.80
11184;BME280;5648;43.628;22.684;2022-09-29T03:51:54;94261.06;;;17.88;77.10
11184;BME280;5648;43.628;22.684;2022-09-29T03:54:19;94251.69;;;17.85;77.66
11184;BME280;5648;43.628;22.684;2022-09-29T03:56:44;94249.81;;;17.91;78.19
11184;BME280;5648;43.628;22.684;2022-09-29T03:59:10;94247.94;;;17.91;79.44
11184;BME280;5648;43.628;22.684;2022-09-29T04:01:37;94256.19;;;18.05;82.14
11184;BME280;5648;43.628;22.684;2022-09-29T04:04:03;94252.19;;;17.97;84.45
11184;BME280;5648;43.628;22.684;2022-09-29T04:06:29;94255.97;;;17.91;83.98
11184;BME280;5648;43.628;22.684;2022-09-29T04:08:55;94260.97;;;18.08;82.15
11184;BME280;5648;43.628;22.684;2022-09-29T04:11:20;94255.41;;;17.94;82.88
11184;BME280;5648;43.628;22.684;2022-09-29T04:13:46;94250.38;;;17.88;87.04
11184;BME280;5648;43.628;22.684;2022-09-29T04:16:11;94248.19;;;17.95;84.60
11184;BME280;5648;43.628;22.684;2022-09-29T04:18:37;94249.25;;;17.99;86.08
11184;BME280;5648;43.628;22.684;2022-09-29T04:21:07;94249.50;;;17.97;84.03
11184;BME280;5648;43.628;22.684;2022-09-29T04:23:33;94253.50;;;18.00;80.81
11184;BME280;5648;43.628;22.684;2022-09-29T04:25:59;94260.22;;;17.97;83.00
11184;BME280;5648;43.628;22.684;2022-09-29T04:28:31;94251.97;;;17.89;83.69
11184;BME280;5648;43.628;22.684;2022-09-29T04:30:56;94245.78;;;17.93;84.22
11184;BME280;5648;43.628;22.684;2022-09-29T04:33:22;94247.44;;;17.89;85.56
11184;BME280;5648;43.628;22.684;2022-09-29T04:35:47;94246.84;;;18.02;85.35
11184;BME280;5648;43.628;22.684;2022-09-29T04:38:13;94251.66;;;17.95;87.12
11184;BME280;5648;43.628;22.684;2022-09-29T04:40:38;94241.47;;;18.07;91.06
11184;BME280;5648;43.628;22.684;2022-09-29T04:43:04;94253.03;;;17.93;93.48
11184;BME280;5648;43.628;22.684;2022-09-29T04:45:30;94254.38;;;17.90;88.43
11184;BME280;5648;43.628;22.684;2022-09-29T04:47:56;94250.03;;;18.04;92.16
11184;BME280;5648;43.628;22.684;2022-09-29T04:50:22;94252.63;;;18.15;93.68
11184;BME280;5648;43.628;22.684;2022-09-29T04:52:47;94246.78;;;18.13;90.64
11184;BME280;5648;43.628;22.684;2022-09-29T04:55:13;94238.25;;;18.05;96.90
11184;BME280;5648;43.628;22.684;2022-09-29T04:57:41;94241.28;;;17.89;98.77
11184;BME280;5648;43.628;22.684;2022-09-29T05:00:08;94243.13;;;17.93;98.05
11184;BME280;5648;43.628;22.684;2022-09-29T05:02:34;94240.97;;;17.95;97.73
11184;BME280;5648;43.628;22.684;2022-09-29T05:05:00;94251.19;;;17.88;96.79
11184;BME280;5648;43.628;22.684;2022-09-29T05:07:26;94258.13;;;17.89;99.38
11184;BME280;5648;43.628;22.684;2022-09-29T05:09:51;94259.72;;;17.90;89.85
11184;BME280;5648;43.628;22.684;2022-09-29T05:12:17;94262.34;;;18.05;98.43
11184;BME280;5648;43.628;22.684;2022-09-29T05:14:42;94267.13;;;18.08;89.50
11184;BME280;5648;43.628;22.684;2022-09-29T05:17:08;94278.38;;;18.05;92.98
11184;BME280;5648;43.628;22.684;2022-09-29T05:19:33;94274.94;;;17.95;100.00
11184;BME280;5648;43.628;22.684;2022-09-29T05:22:00;94278.88;;;18.18;96.76
11184;BME280;5648;43.628;22.684;2022-09-29T05:24:26;94281.84;;;18.01;100.00
11184;BME280;5648;43.628;22.684;2022-09-29T05:26:52;94273.81;;;18.06;100.00
11184;BME280;5648;43.628;22.684;2022-09-29T05:29:17;94282.63;;;18.12;100.00
11184;BME280;5648;43.628;22.684;2022-09-29T05:31:43;94272.47;;;18.08;94.82
11184;BME280;5648;43.628;22.684;2022-09-29T05:34:09;94268.03;;;17.89;100.00
11184;BME280;5648;43.628;22.684;2022-09-29T05:36:35;94274.19;;;17.79;100.00
11184;BME280;5648;43.628;22.684;2022-09-29T05:39:00;94277.59;;;17.95;100.00
11184;BME280;5648;43.628;22.684;2022-09-29T05:41:26;94283.28;;;17.73;100.00
11184;BME280;5648;43.628;22.684;2022-09-29T05:43:53;94285.72;;;17.74;100.00
11184;BME280;5648;43.628;22.684;2022-09-29T05:46:19;94285.94;;;17.73;100.00
11184;BME280;5648;43.628;22.684;2022-09-29T05:48:49;94292.66;;;17.70;100.00
11184;BME280;5648;43.628;22.684;2022-09-29T05:51:20;94287.25;;;17.86;100.00
11184;BME280;5648;43.628;22.684;2022-09-29T05:53:46;94283.50;;;17.92;100.00
11184;BME280;5648;43.628;22.684;2022-09-29T05:56:15;94283.25;;;17.83;100.00
11184;BME280;5648;43.628;22.684;2022-09-29T05:58:41;94296.66;;;17.73;100.00
11184;BME280;5648;43.628;22.684;2022-09-29T06:01:09;94310.25;;;17.87;100.00
11184;BME280;5648;43.628;22.684;2022-09-29T06:03:35;94304.09;;;17.91;100.00
11184;BME280;5648;43.628;22.684;2022-09-29T06:06:06;94303.34;;;17.75;100.00
11184;BME280;5648;43.628;22.684;2022-09-29T06:08:32;94298.78;;;17.71;100.00
11184;BME280;5648;43.628;22.684;2022-09-29T06:11:09;94306.28;;;17.79;100.00
11184;BME280;5648;43.628;22.684;2022-09-29T06:13:41;94309.47;;;17.81;100.00
11184;BME280;5648;43.628;22.684;2022-09-29T06:16:07;94304.91;;;17.82;100.00
11184;BME280;5648;43.628;22.684;2022-09-29T06:18:34;94289.66;;;17.87;100.00
11184;BME280;5648;43.628;22.684;2022-09-29T06:21:04;94307.88;;;17.80;100.00
11184;BME280;5648;43.628;22.684;2022-09-29T06:23:30;94311.09;;;17.77;100.00
11184;BME280;5648;43.628;22.684;2022-09-29T06:26:00;94305.69;;;17.92;100.00
11184;BME280;5648;43.628;22.684;2022-09-29T06:28:29;94317.22;;;17.88;100.00
11184;BME280;5648;43.628;22.684;2022-09-29T06:31:06;94320.13;;;17.96;100.00
11184;BME280;5648;43.628;22.684;2022-09-29T06:33:34;94329.47;;;18.04;100.00
11184;BME280;5648;43.628;22.684;2022-09-29T06:36:03;94321.16;;;18.00;100.00
11184;BME280;5648;43.628;22.684;2022-09-29T06:38:48;94324.63;;;18.11;100.00
11184;BME280;5648;43.628;22.684;2022-09-29T06:41:13;94335.56;;;18.15;100.00
11184;BME280;5648;43.628;22.684;2022-09-29T06:43:39;94340.41;;;18.07;100.00
11184;BME280;5648;43.628;22.684;2022-09-29T06:46:04;94327.84;;;18.08;100.00
11184;BME280;5648;43.628;22.684;2022-09-29T06:48:30;94352.19;;;18.06;100.00
11184;BME280;5648;43.628;22.684;2022-09-29T06:50:55;94351.38;;;18.16;100.00
11184;BME280;5648;43.628;22.684;2022-09-29T06:53:22;94349.97;;;18.24;100.00
11184;BME280;5648;43.628;22.684;2022-09-29T06:55:51;94362.34;;;18.09;100.00
11184;BME280;5648;43.628;22.684;2022-09-29T06:58:17;94354.81;;;18.22;100.00
11184;BME280;5648;43.628;22.684;2022-09-29T07:00:46;94352.31;;;18.40;100.00
11184;BME280;5648;43.628;22.684;2022-09-29T07:03:12;94365.41;;;18.47;100.00
11184;BME280;5648;43.628;22.684;2022-09-29T07:05:38;94366.25;;;18.37;100.00
11184;BME280;5648;43.628;22.684;2022-09-29T07:08:03;94368.13;;;18.37;100.00
11184;BME280;5648;43.628;22.684;2022-09-29T07:10:29;94367.56;;;18.45;100.00
11184;BME280;5648;43.628;22.684;2022-09-29T07:12:54;94384.72;;;18.39;100.00
11184;BME280;5648;43.628;22.684;2022-09-29T07:15:20;94368.34;;;18.51;100.00
11184;BME280;5648;43.628;22.684;2022-09-29T07:17:50;94373.97;;;18.49;100.00
11184;BME280;5648;43.628;22.684;2022-09-29T07:20:16;94376.63;;;18.54;100.00
11184;BME280;5648;43.628;22.684;2022-09-29T07:22:45;94385.16;;;18.66;100.00
11184;BME280;5648;43.628;22.684;2022-09-29T07:25:11;94381.69;;;18.56;100.00
11184;BME280;5648;43.628;22.684;2022-09-29T07:27:37;94380.38;;;18.53;100.00
11184;BME280;5648;43.628;22.684;2022-09-29T07:30:03;94382.78;;;18.55;100.00
11184;BME280;5648;43.628;22.684;2022-09-29T07:32:29;94393.59;;;18.24;100.00
11184;BME280;5648;43.628;22.684;2022-09-29T07:34:57;94399.19;;;18.28;100.00
11184;BME280;5648;43.628;22.684;2022-09-29T07:37:22;94400.09;;;17.67;100.00
11184;BME280;5648;43.628;22.684;2022-09-29T07:39:49;94409.69;;;17.23;100.00
11184;BME280;5648;43.628;22.684;2022-09-29T07:42:15;94412.91;;;17.25;100.00
11184;BME280;5648;43.628;22.684;2022-09-29T07:44:42;94416.94;;;17.47;100.00
11184;BME280;5648;43.628;22.684;2022-09-29T07:47:07;94412.91;;;17.25;100.00
11184;BME280;5648;43.628;22.684;2022-09-29T07:49:33;94417.69;;;17.28;100.00
11184;BME280;5648;43.628;22.684;2022-09-29T07:51:59;94415.59;;;17.35;100.00
11184;BME280;5648;43.628;22.684;2022-09-29T07:54:24;94412.91;;;17.55;100.00
11184;BME280;5648;43.628;22.684;2022-09-29T07:56:50;94407.84;;;17.84;100.00
11184;BME280;5648;43.628;22.684;2022-09-29T07:59:15;94400.38;;;17.91;100.00
11184;BME280;5648;43.628;22.684;2022-09-29T08:01:41;94401.41;;;18.05;100.00
11184;BME280;5648;43.628;22.684;2022-09-29T08:04:06;94398.69;;;18.21;100.00
11184;BME280;5648;43.628;22.684;2022-09-29T08:06:33;94398.63;;;18.41;100.00
11184;BME280;5648;43.628;22.684;2022-09-29T08:08:59;94394.84;;;18.52;100.00
11184;BME280;5648;43.628;22.684;2022-09-29T08:11:26;94396.72;;;18.52;100.00
11184;BME280;5648;43.628;22.684;2022-09-29T08:13:52;94398.50;;;18.72;100.00
11184;BME280;5648;43.628;22.684;2022-09-29T08:16:18;94401.44;;;18.80;100.00
11184;BME280;5648;43.628;22.684;2022-09-29T08:18:45;94411.28;;;18.90;100.00
11184;BME280;5648;43.628;22.684;2022-09-29T08:21:11;94410.69;;;19.03;100.00
11184;BME280;5648;43.628;22.684;2022-09-29T08:23:40;94409.56;;;19.09;100.00
11184;BME280;5648;43.628;22.684;2022-09-29T08:26:09;94408.66;;;19.29;100.00
11184;BME280;5648;43.628;22.684;2022-09-29T08:28:36;94411.97;;;19.50;100.00
11184;BME280;5648;43.628;22.684;2022-09-29T08:31:03;94410.63;;;19.58;100.00
11184;BME280;5648;43.628;22.684;2022-09-29T08:33:29;94419.81;;;19.80;98.07
11184;BME280;5648;43.628;22.684;2022-09-29T08:35:56;94417.09;;;19.85;100.00
11184;BME280;5648;43.628;22.684;2022-09-29T08:38:23;94410.59;;;19.92;96.46
11184;BME280;5648;43.628;22.684;2022-09-29T08:40:48;94420.56;;;20.15;100.00
11184;BME280;5648;43.628;22.684;2022-09-29T08:43:59;94425.81;;;20.25;100.00
11184;BME280;5648;43.628;22.684;2022-09-29T08:46:20;94417.53;;;20.51;93.62
11184;BME280;5648;43.628;22.684;2022-09-29T08:48:48;94424.03;;;20.68;100.00
11184;BME280;5648;43.628;22.684;2022-09-29T08:51:38;94432.25;;;20.77;100.00
11184;BME280;5648;43.628;22.684;2022-09-29T08:54:14;94425.09;;;20.91;100.00
11184;BME280;5648;43.628;22.684;2022-09-29T08:56:41;94428.75;;;21.00;99.71
11184;BME280;5648;43.628;22.684;2022-09-29T08:59:09;94441.38;;;21.00;100.00
11184;BME280;5648;43.628;22.684;2022-09-29T09:04:44;94431.53;;;21.14;97.35
11184;BME280;5648;43.628;22.684;2022-09-29T09:10:06;94439.41;;;20.87;96.75
11184;BME280;5648;43.628;22.684;2022-09-29T09:12:54;94453.63;;;20.87;96.54
11184;BME280;5648;43.628;22.684;2022-09-29T09:15:39;94440.19;;;20.87;88.93
11184;BME280;5648;43.628;22.684;2022-09-29T09:21:06;94444.56;;;21.02;93.25
11184;BME280;5648;43.628;22.684;2022-09-29T09:26:13;94446.78;;;20.76;100.00
11184;BME280;5648;43.628;22.684;2022-09-29T09:28:47;94445.69;;;20.53;100.00
11184;BME280;5648;43.628;22.684;2022-09-29T09:33:52;94465.00;;;20.79;97.62
11184;BME280;5648;43.628;22.684;2022-09-29T09:36:32;94459.59;;;20.60;100.00
11184;BME280;5648;43.628;22.684;2022-09-29T09:39:16;94468.25;;;20.52;99.79
11184;BME280;5648;43.628;22.684;2022-09-29T09:41:46;94463.81;;;20.42;100.00
11184;BME280;5648;43.628;22.684;2022-09-29T09:44:20;94458.94;;;20.44;100.00
11184;BME280;5648;43.628;22.684;2022-09-29T09:46:56;94457.34;;;20.38;100.00
11184;BME280;5648;43.628;22.684;2022-09-29T09:49:26;94467.72;;;20.55;99.08
11184;BME280;5648;43.628;22.684;2022-09-29T09:52:03;94458.59;;;20.75;97.00
11184;BME280;5648;43.628;22.684;2022-09-29T09:54:33;94460.22;;;20.76;100.00
11184;BME280;5648;43.628;22.684;2022-09-29T10:00:31;94463.94;;;20.56;98.46
11184;BME280;5648;43.628;22.684;2022-09-29T10:03:03;94465.06;;;20.74;100.00
11184;BME280;5648;43.628;22.684;2022-09-29T10:05:34;94456.38;;;20.82;99.58
11184;BME280;5648;43.628;22.684;2022-09-29T10:08:04;94457.63;;;20.90;100.00
11184;BME280;5648;43.628;22.684;2022-09-29T10:10:31;94454.06;;;20.94;100.00
11184;BME280;5648;43.628;22.684;2022-09-29T10:13:05;94460.13;;;20.81;100.00
11184;BME280;5648;43.628;22.684;2022-09-29T10:20:45;94453.75;;;20.77;100.00
11184;BME280;5648;43.628;22.684;2022-09-29T10:23:31;94464.59;;;20.91;100.00
11184;BME280;5648;43.628;22.684;2022-09-29T10:28:41;94472.13;;;21.13;100.00
11184;BME280;5648;43.628;22.684;2022-09-29T10:31:24;94465.00;;;21.22;100.00
11184;BME280;5648;43.628;22.684;2022-09-29T10:39:45;94472.16;;;21.31;100.00
11184;BME280;5648;43.628;22.684;2022-09-29T10:42:20;94471.34;;;21.12;100.00
11184;BME280;5648;43.628;22.684;2022-09-29T10:44:52;94465.81;;;21.22;100.00
11184;BME280;5648;43.628;22.684;2022-09-29T10:47:20;94470.53;;;21.12;100.00
11184;BME280;5648;43.628;22.684;2022-09-29T10:49:46;94463.22;;;20.93;100.00
11184;BME280;5648;43.628;22.684;2022-09-29T10:52:29;94467.13;;;21.25;100.00
11184;BME280;5648;43.628;22.684;2022-09-29T10:54:59;94471.97;;;21.28;100.00
11184;BME280;5648;43.628;22.684;2022-09-29T10:57:30;94471.47;;;21.21;100.00
11184;BME280;5648;43.628;22.684;2022-09-29T10:59:56;94463.38;;;21.26;100.00
11184;BME280;5648;43.628;22.684;2022-09-29T11:04:55;94462.91;;;21.19;100.00
11184;BME280;5648;43.628;22.684;2022-09-29T11:07:22;94463.91;;;21.28;100.00
11184;BME280;5648;43.628;22.684;2022-09-29T11:09:47;94460.22;;;21.19;100.00
11184;BME280;5648;43.628;22.684;2022-09-29T11:12:34;94469.28;;;21.23;100.00
11184;BME280;5648;43.628;22.684;2022-09-29T11:15:25;94473.72;;;21.14;100.00
11184;BME280;5648;43.628;22.684;2022-09-29T11:17:51;94468.25;;;20.76;100.00
11184;BME280;5648;43.628;22.684;2022-09-29T11:20:17;94481.97;;;20.98;100.00
11184;BME280;5648;43.628;22.684;2022-09-29T11:23:17;94475.41;;;20.86;100.00
11184;BME280;5648;43.628;22.684;2022-09-29T11:34:04;94467.44;;;20.52;100.00
11184;BME280;5648;43.628;22.684;2022-09-29T11:37:00;94469.06;;;20.53;100.00
11184;BME280;5648;43.628;22.684;2022-09-29T11:45:02;94472.38;;;20.68;98.11
11184;BME280;5648;43.628;22.684;2022-09-29T11:55:45;94466.59;;;21.04;97.94
11184;BME280;5648;43.628;22.684;2022-09-29T11:58:29;94454.41;;;21.12;98.31
11184;BME280;5648;43.628;22.684;2022-09-29T12:01:17;94465.00;;;21.22;95.68
11184;BME280;5648;43.628;22.684;2022-09-29T12:06:55;94463.38;;;21.26;96.45
11184;BME280;5648;43.628;22.684;2022-09-29T12:09:43;94456.19;;;21.40;100.00
11184;BME280;5648;43.628;22.684;2022-09-29T12:12:44;94457.06;;;21.54;100.00
11184;BME280;5648;43.628;22.684;2022-09-29T12:15:22;94449.41;;;21.61;100.00
11184;BME280;5648;43.628;22.684;2022-09-29T12:17:53;94448.03;;;21.83;95.43
11184;BME280;5648;43.628;22.684;2022-09-29T12:20:25;94450.53;;;21.93;100.00
11184;BME280;5648;43.628;22.684;2022-09-29T12:22:52;94445.41;;;21.78;100.00
11184;BME280;5648;43.628;22.684;2022-09-29T12:25:23;94441.91;;;21.77;92.95
11184;BME280;5648;43.628;22.684;2022-09-29T12:27:55;94447.72;;;21.66;89.50
11184;BME280;5648;43.628;22.684;2022-09-29T12:30:29;94451.16;;;21.71;93.30
11184;BME280;5648;43.628;22.684;2022-09-29T12:33:03;94442.81;;;21.54;89.40
11184;BME280;5648;43.628;22.684;2022-09-29T12:38:27;94469.53;;;21.83;100.00
11184;BME280;5648;43.628;22.684;2022-09-29T12:41:18;94460.16;;;21.80;100.00
11184;BME280;5648;43.628;22.684;2022-09-29T12:43:52;94452.47;;;21.74;100.00
11184;BME280;5648;43.628;22.684;2022-09-29T12:46:26;94455.56;;;21.81;96.81
11184;BME280;5648;43.628;22.684;2022-09-29T12:51:45;94451.22;;;21.85;87.02
11184;BME280;5648;43.628;22.684;2022-09-29T12:57:02;94473.28;;;21.68;86.70
11184;BME280;5648;43.628;22.684;2022-09-29T12:59:35;94462.34;;;21.78;86.70
11184;BME280;5648;43.628;22.684;2022-09-29T13:02:33;94457.41;;;21.48;88.40
11184;BME280;5648;43.628;22.684;2022-09-29T13:25:21;94452.75;;;21.72;90.41
11184;BME280;5648;43.628;22.684;2022-09-29T13:27:50;94466.34;;;21.62;86.91
11184;BME280;5648;43.628;22.684;2022-09-29T13:30:19;94466.34;;;21.62;94.04
11184;BME280;5648;43.628;22.684;2022-09-29T13:32:50;94470.44;;;21.59;91.19
11184;BME280;5648;43.628;22.684;2022-09-29T13:35:43;94469.78;;;21.49;90.51
11184;BME280;5648;43.628;22.684;2022-09-29T13:41:08;94461.34;;;21.55;89.63
11184;BME280;5648;43.628;22.684;2022-09-29T13:51:43;94467.75;;;21.59;88.94
11184;BME280;5648;43.628;22.684;2022-09-29T14:00:00;94474.84;;;21.31;92.70
11184;BME280;5648;43.628;22.684;2022-09-29T14:02:36;94482.63;;;21.52;99.54
11184;BME280;5648;43.628;22.684;2022-09-29T14:08:13;94487.47;;;21.12;100.00
11184;BME280;5648;43.628;22.684;2022-09-29T14:10:57;94491.44;;;21.15;100.00
11184;BME280;5648;43.628;22.684;2022-09-29T14:21:07;94488.78;;;20.67;95.46
11184;BME280;5648;43.628;22.684;2022-09-29T14:23:53;94490.03;;;20.74;93.67
11184;BME280;5648;43.628;22.684;2022-09-29T14:26:46;94480.66;;;20.96;98.91
11184;BME280;5648;43.628;22.684;2022-09-29T14:29:26;94476.50;;;20.85;92.78
11184;BME280;5648;43.628;22.684;2022-09-29T14:31:55;94470.78;;;20.91;98.40
11184;BME280;5648;43.628;22.684;2022-09-29T14:34:27;94474.28;;;21.11;91.61
11184;BME280;5648;43.628;22.684;2022-09-29T14:36:55;94479.53;;;21.21;95.78
11184;BME280;5648;43.628;22.684;2022-09-29T14:39:23;94480.91;;;21.42;92.56
11184;BME280;5648;43.628;22.684;2022-09-29T14:41:49;94482.22;;;21.26;95.68
11184;BME280;5648;43.628;22.684;2022-09-29T14:44:25;94485.41;;;21.23;98.88
11184;BME280;5648;43.628;22.684;2022-09-29T14:47:11;94492.81;;;21.36;90.70
11184;BME280;5648;43.628;22.684;2022-09-29T14:58:34;94503.94;;;20.24;98.32
11184;BME280;5648;43.628;22.684;2022-09-29T15:01:29;94503.72;;;20.49;100.00
11184;BME280;5648;43.628;22.684;2022-09-29T15:03:57;94496.09;;;20.32;100.00
11184;BME280;5648;43.628;22.684;2022-09-29T15:06:28;94495.91;;;20.53;98.68
11184;BME280;5648;43.628;22.684;2022-09-29T15:09:12;94503.09;;;20.28;97.23
11184;BME280;5648;43.628;22.684;2022-09-29T15:11:52;94498.25;;;20.30;99.56
11184;BME280;5648;43.628;22.684;2022-09-29T15:14:30;94500.59;;;20.08;100.00
11184;BME280;5648;43.628;22.684;2022-09-29T15:19:44;94496.94;;;19.99;89.29
11184;BME280;5648;43.628;22.684;2022-09-29T15:25:21;94509.44;;;19.69;97.41
11184;BME280;5648;43.628;22.684;2022-09-29T15:27:52;94515.38;;;19.66;97.28
11184;BME280;5648;43.628;22.684;2022-09-29T15:30:20;94512.13;;;19.74;97.83
11184;BME280;5648;43.628;22.684;2022-09-29T15:32:47;94503.06;;;19.65;98.20
11184;BME280;5648;43.628;22.684;2022-09-29T15:35:24;94502.59;;;19.58;100.00
11184;BME280;5648;43.628;22.684;2022-09-29T15:40:16;94500.31;;;19.70;100.00
11184;BME280;5648;43.628;22.684;2022-09-29T15:42:42;94488.63;;;19.56;100.00
11184;BME280;5648;43.628;22.684;2022-09-29T15:45:35;94480.00;;;19.64;100.00
11184;BME280;5648;43.628;22.684;2022-09-29T15:48:03;94484.16;;;19.80;100.00
11184;BME280;5648;43.628;22.684;2022-09-29T15:50:33;94482.06;;;19.77;100.00
11184;BME280;5648;43.628;22.684;2022-09-29T15:53:05;94478.34;;;19.73;98.85
11184;BME280;5648;43.628;22.684;2022-09-29T15:55:31;94470.25;;;19.78;97.84
11184;BME280;5648;43.628;22.684;2022-09-29T15:57:56;94473.44;;;19.80;95.43
11184;BME280;5648;43.628;22.684;2022-09-29T16:05:24;94465.28;;;19.62;100.00
11184;BME280;5648;43.628;22.684;2022-09-29T16:08:16;94471.22;;;19.59;98.10
11184;BME280;5648;43.628;22.684;2022-09-29T16:13:28;94485.97;;;19.51;99.24
11184;BME280;5648;43.628;22.684;2022-09-29T16:16:11;94483.13;;;19.32;99.50
11184;BME280;5648;43.628;22.684;2022-09-29T16:18:48;94487.31;;;19.48;98.61
11184;BME280;5648;43.628;22.684;2022-09-29T16:21:18;94491.84;;;19.53;97.33
11184;BME280;5648;43.628;22.684;2022-09-29T16:24:12;94490.66;;;19.30;100.00